Connecticut River @ West Lebanon, Nh

Connecticut River at West Lebanon
 Total Drainage Area: 4,092 sq. miles 
 Drainage Area Controlled by Corps Dams: 126 sq. miles (3%) 
 Warning Flow/Stage: 29,200 cfs / 14.0 feet 
 Flood Flow/Stage: 64,200 cfs / 22.0 feet 
Date Time
(Eastern)
Stage
(ft)
Flow
(cfs)
CSM
(cfs / sq. mi.)
Jun-25 12:30 am 8.35 10,280 2.5
Jun-24 11:30 pm 8.00 9,319 2.3
Jun-24 10:30 pm 8.00 9,319 2.3
Jun-24 09:30 pm 8.03 9,400 2.3
Jun-24 08:30 pm 8.05 9,455 2.3
Jun-24 07:30 pm 8.06 9,482 2.3
Jun-24 06:30 pm 8.09 9,563 2.3
Jun-24 05:30 pm 8.18 9,810 2.4
Jun-24 04:30 pm 8.34 10,252 2.5
Jun-24 03:30 pm 8.73 11,355 2.8
Jun-24 02:30 pm 9.21 12,760 3.1
Jun-24 01:30 pm 9.27 12,939 3.2
Jun-24 12:30 pm 9.30 13,029 3.2
Jun-24 11:30 am 9.32 13,089 3.2
Jun-24 10:30 am 9.35 13,179 3.2
Jun-24 09:30 am 9.36 13,209 3.2
Jun-24 08:30 am 9.26 12,909 3.2
Jun-24 07:30 am 9.23 12,819 3.1
Jun-24 06:30 am 9.13 12,522 3.1
Jun-24 05:30 am 9.07 12,345 3.0
Jun-24 04:30 am 9.05 12,286 3.0
Jun-24 03:30 am 9.04 12,257 3.0
Jun-24 02:30 am 8.96 12,022 2.9
Jun-24 01:30 am 8.71 11,298 2.8
Jun-24 12:30 am 8.23 9,947 2.4
Report Generated June 25, 2024 05:17 am